createdAt,value
2018-01-27T00:00:17.407Z,5.54
2018-01-27T00:02:46.226Z,5.55
2018-01-27T00:05:14.772Z,5.57
2018-01-27T00:07:43.254Z,5.55
2018-01-27T00:10:11.844Z,5.58
2018-01-27T00:12:40.349Z,5.61
2018-01-27T00:15:08.783Z,5.63
2018-01-27T00:17:37.268Z,5.65
2018-01-27T00:20:05.713Z,5.70
2018-01-27T00:22:43.973Z,5.74
2018-01-27T00:25:13.067Z,5.69
2018-01-27T00:27:41.542Z,5.74
2018-01-27T00:30:10.624Z,5.73
2018-01-27T00:32:40.081Z,5.70
2018-01-27T00:35:08.546Z,5.70
2018-01-27T00:37:37.041Z,5.72
2018-01-27T00:40:05.723Z,5.77
2018-01-27T00:42:35.008Z,5.82
2018-01-27T00:45:04.102Z,5.80
2018-01-27T00:47:32.520Z,5.90
2018-01-27T00:50:00.934Z,5.99
2018-01-27T00:52:29.667Z,6.00
2018-01-27T00:54:58.090Z,6.06
2018-01-27T00:57:26.553Z,6.12
2018-01-27T00:59:55.264Z,6.10
2018-01-27T01:02:23.696Z,6.03
2018-01-27T01:04:52.340Z,6.05
2018-01-27T01:07:21.127Z,6.15
2018-01-27T01:09:49.605Z,6.16
2018-01-27T01:12:18.090Z,6.13
2018-01-27T01:14:46.713Z,6.14
2018-01-27T01:17:15.361Z,6.08
2018-01-27T01:19:43.832Z,6.11
2018-01-27T01:22:12.490Z,6.03
2018-01-27T01:24:40.899Z,6.10
2018-01-27T01:27:09.297Z,6.07
2018-01-27T01:29:37.997Z,6.12
2018-01-27T01:32:06.555Z,6.14
2018-01-27T01:34:34.975Z,6.19
2018-01-27T01:37:03.577Z,6.22
2018-01-27T01:39:31.979Z,6.20
2018-01-27T01:42:00.436Z,6.17
2018-01-27T01:44:29.133Z,6.23
2018-01-27T01:46:57.512Z,6.21
2018-01-27T01:49:25.929Z,6.07
2018-01-27T01:51:54.393Z,6.02
2018-01-27T01:54:22.826Z,6.23
2018-01-27T01:56:51.334Z,6.32
2018-01-27T01:59:20.552Z,6.33
2018-01-27T02:01:49.313Z,6.23
2018-01-27T02:04:18.362Z,6.25
2018-01-27T02:06:47.641Z,6.33
2018-01-27T02:09:16.415Z,6.41
2018-01-27T02:11:44.964Z,6.40
2018-01-27T02:14:13.594Z,6.28
2018-01-27T02:16:42.119Z,6.35
2018-01-27T02:19:10.576Z,6.09
2018-01-27T02:21:39.024Z,6.20
2018-01-27T02:24:07.509Z,6.33
2018-01-27T02:26:35.936Z,6.35
2018-01-27T02:29:04.448Z,6.37
2018-01-27T02:31:32.844Z,6.32
2018-01-27T02:34:01.248Z,6.40
2018-01-27T02:36:33.698Z,6.31
2018-01-27T02:39:02.693Z,6.36
2018-01-27T02:41:31.144Z,6.29
2018-01-27T02:43:59.603Z,6.34
2018-01-27T02:46:28.003Z,6.28
2018-01-27T02:48:56.410Z,6.30
2018-01-27T02:51:25.671Z,6.28
2018-01-27T02:53:54.110Z,6.04
2018-01-27T02:56:22.532Z,6.11
2018-01-27T02:58:51.022Z,6.24
2018-01-27T03:01:19.508Z,6.22
2018-01-27T03:03:48.989Z,6.08
2018-01-27T03:06:17.665Z,6.16
2018-01-27T03:08:46.152Z,6.20
2018-01-27T03:11:14.723Z,6.19
2018-01-27T03:13:44.032Z,6.06
2018-01-27T03:16:12.564Z,6.15
2018-01-27T03:18:40.983Z,6.20
2018-01-27T03:21:09.621Z,6.17
2018-01-27T03:23:38.053Z,6.17
2018-01-27T03:26:07.226Z,6.20
2018-01-27T03:28:35.765Z,6.20
2018-01-27T03:31:04.179Z,6.17
2018-01-27T03:33:32.584Z,6.25
2018-01-27T03:36:02.049Z,6.24
2018-01-27T03:38:30.531Z,6.26
2018-01-27T03:40:58.953Z,6.28
2018-01-27T03:43:27.555Z,6.23
2018-01-27T03:45:56.011Z,6.22
2018-01-27T03:48:24.496Z,6.15
2018-01-27T03:50:53.947Z,5.94
2018-01-27T03:53:22.409Z,6.06
2018-01-27T03:55:50.854Z,5.98
2018-01-27T03:58:19.793Z,6.10
2018-01-27T04:00:48.448Z,6.15
2018-01-27T04:03:16.893Z,6.15
2018-01-27T04:05:46.109Z,6.16
2018-01-27T04:08:14.568Z,6.12
2018-01-27T04:10:43.042Z,6.03
2018-01-27T04:13:11.501Z,5.89
2018-01-27T04:15:40.462Z,5.93
2018-01-27T04:18:08.890Z,6.08
2018-01-27T04:20:38.146Z,6.13
2018-01-27T04:23:06.588Z,5.99
2018-01-27T04:25:34.999Z,6.14
2018-01-27T04:28:03.617Z,6.23
2018-01-27T04:30:32.238Z,6.07
2018-01-27T04:33:00.660Z,6.18
2018-01-27T04:35:29.141Z,6.19
2018-01-27T04:37:57.579Z,6.26
2018-01-27T04:40:26.017Z,6.27
2018-01-27T04:42:54.546Z,6.23
2018-01-27T04:45:23.012Z,6.26
2018-01-27T04:47:51.513Z,6.33
2018-01-27T04:50:19.992Z,6.31
2018-01-27T04:52:48.575Z,6.32
2018-01-27T04:55:17.064Z,6.38
2018-01-27T04:57:45.635Z,6.42
2018-01-27T05:00:14.139Z,6.41
2018-01-27T05:02:42.628Z,6.51
2018-01-27T05:05:11.324Z,6.51
2018-01-27T05:07:39.747Z,6.53
2018-01-27T05:10:08.169Z,6.55
2018-01-27T05:12:37.385Z,6.57
2018-01-27T05:15:05.874Z,6.62
2018-01-27T05:17:34.283Z,6.62
2018-01-27T05:20:03.004Z,6.57
2018-01-27T05:22:31.419Z,6.45
2018-01-27T05:24:59.865Z,6.47
2018-01-27T05:27:28.689Z,6.44
2018-01-27T05:29:57.104Z,6.42
2018-01-27T05:32:25.554Z,6.37
2018-01-27T05:34:54.138Z,6.44
2018-01-27T05:37:22.655Z,6.43
2018-01-27T05:39:52.364Z,6.42
2018-01-27T05:42:21.690Z,6.44
2018-01-27T05:44:50.516Z,6.39
2018-01-27T05:47:19.184Z,6.35
2018-01-27T05:49:47.873Z,6.37
2018-01-27T05:52:16.339Z,6.38
2018-01-27T05:54:44.835Z,6.44
2018-01-27T05:57:13.933Z,6.35
2018-01-27T05:59:42.449Z,6.31
2018-01-27T06:02:10.920Z,6.31
2018-01-27T06:04:41.033Z,6.32
2018-01-27T06:07:09.458Z,6.30
2018-01-27T06:09:37.864Z,6.23
2018-01-27T06:12:07.213Z,6.28
2018-01-27T06:14:35.626Z,6.29
2018-01-27T06:17:04.074Z,6.19
2018-01-27T06:19:32.561Z,6.30
2018-01-27T06:22:00.985Z,6.26
2018-01-27T06:24:29.420Z,6.37
2018-01-27T06:26:58.924Z,6.33
2018-01-27T06:29:27.345Z,6.44
2018-01-27T06:31:55.774Z,6.48
2018-01-27T06:34:24.257Z,6.43
2018-01-27T06:36:52.726Z,6.39
2018-01-27T06:39:21.238Z,6.39
2018-01-27T06:41:50.434Z,6.46
2018-01-27T06:44:18.915Z,6.42
2018-01-27T06:46:47.427Z,6.44
2018-01-27T06:49:16.094Z,6.45
2018-01-27T06:51:44.677Z,6.41
2018-01-27T06:54:13.161Z,6.48
2018-01-27T06:56:41.666Z,6.51
2018-01-27T06:59:10.073Z,6.36
2018-01-27T07:01:38.489Z,6.40
2018-01-27T07:04:09.046Z,6.43
2018-01-27T07:06:37.486Z,6.43
2018-01-27T07:09:05.900Z,6.32
2018-01-27T07:11:34.365Z,6.39
2018-01-27T07:14:02.797Z,6.38
2018-01-27T07:16:31.572Z,6.35
2018-01-27T07:19:00.066Z,6.43
2018-01-27T07:21:28.470Z,6.46
2018-01-27T07:23:57.006Z,6.48
2018-01-27T07:26:25.542Z,6.54
2018-01-27T07:28:54.095Z,6.51
2018-01-27T07:31:22.504Z,6.33
2018-01-27T07:33:51.078Z,6.26
2018-01-27T07:36:19.573Z,6.34
2018-01-27T07:38:48.039Z,6.44
2018-01-27T07:41:17.646Z,6.44
2018-01-27T07:43:46.137Z,6.43
2018-01-27T07:46:14.611Z,6.45
2018-01-27T07:48:43.299Z,6.45
2018-01-27T07:51:11.896Z,6.50
2018-01-27T07:53:40.354Z,6.50
2018-01-27T07:56:08.813Z,6.52
2018-01-27T07:58:37.226Z,6.53
2018-01-27T08:01:06.052Z,6.51
2018-01-27T08:03:34.643Z,6.40
2018-01-27T08:06:03.071Z,6.35
2018-01-27T08:08:31.566Z,6.33
2018-01-27T08:11:00.349Z,6.47
2018-01-27T08:13:28.877Z,6.53
2018-01-27T08:15:57.407Z,6.56
2018-01-27T08:18:26.617Z,6.55
2018-01-27T08:20:55.253Z,6.60
2018-01-27T08:23:23.716Z,6.58
2018-01-27T08:25:52.457Z,6.59
2018-01-27T08:28:20.937Z,6.62
2018-01-27T08:30:49.418Z,6.70
2018-01-27T08:33:18.611Z,6.66
2018-01-27T08:35:47.094Z,6.68
2018-01-27T08:38:15.574Z,6.76
2018-01-27T08:40:44.096Z,6.76
2018-01-27T08:43:12.681Z,6.83
2018-01-27T08:45:41.165Z,6.85
2018-01-27T08:48:09.714Z,7.00
2018-01-27T08:50:38.149Z,7.03
2018-01-27T08:53:06.655Z,7.03
2018-01-27T08:55:35.213Z,7.07
2018-01-27T08:58:03.661Z,7.18
2018-01-27T09:00:32.226Z,7.43
2018-01-27T09:03:00.962Z,7.80
2018-01-27T09:05:29.416Z,7.97
2018-01-27T09:07:58.003Z,7.88
2018-01-27T09:10:26.712Z,7.95
2018-01-27T09:12:55.193Z,7.94
2018-01-27T09:15:23.765Z,7.90
2018-01-27T09:17:52.635Z,8.02
2018-01-27T09:20:21.112Z,8.01
2018-01-27T09:22:49.768Z,8.00
2018-01-27T09:25:19.501Z,8.05
2018-01-27T09:27:48.165Z,8.09
2018-01-27T09:30:17.090Z,8.07
2018-01-27T09:32:45.969Z,8.01
2018-01-27T09:35:14.537Z,8.02
2018-01-27T09:37:43.148Z,8.26
2018-01-27T09:40:11.936Z,8.20
2018-01-27T09:42:40.458Z,8.20
2018-01-27T09:45:08.943Z,8.15
2018-01-27T09:47:37.776Z,8.05
2018-01-27T09:50:07.165Z,8.23
2018-01-27T09:52:37.399Z,8.19
2018-01-27T09:55:05.892Z,8.07
2018-01-27T09:57:34.414Z,8.05
2018-01-27T10:00:03.064Z,8.10
2018-01-27T10:02:34.699Z,7.94
2018-01-27T10:05:03.283Z,8.04
2018-01-27T10:07:33.523Z,7.94
2018-01-27T10:10:02.735Z,7.83
2018-01-27T10:12:31.617Z,7.80
2018-01-27T10:15:00.237Z,7.91
2018-01-27T10:17:28.793Z,7.84
2018-01-27T10:20:07.313Z,7.85
2018-01-27T10:22:38.324Z,7.78
2018-01-27T10:25:08.854Z,7.77
2018-01-27T10:27:37.321Z,7.73
2018-01-27T10:30:05.832Z,7.61
2018-01-27T10:32:34.670Z,7.58
2018-01-27T10:35:03.336Z,7.36
2018-01-27T10:37:32.542Z,7.38
2018-01-27T10:40:01.057Z,7.37
2018-01-27T10:42:33.606Z,7.43
2018-01-27T10:45:04.515Z,7.39
2018-01-27T10:47:36.114Z,7.45
2018-01-27T10:50:04.573Z,7.47
2018-01-27T10:52:34.826Z,7.41
2018-01-27T10:55:03.273Z,7.48
2018-01-27T10:57:31.713Z,7.47
2018-01-27T11:00:00.283Z,7.41
2018-01-27T11:02:28.692Z,7.38
2018-01-27T11:04:57.167Z,7.41
2018-01-27T11:07:25.645Z,7.31
2018-01-27T11:09:54.148Z,7.47
2018-01-27T11:12:22.656Z,7.45
2018-01-27T11:14:51.170Z,7.62
2018-01-27T11:17:19.666Z,7.66
2018-01-27T11:19:48.210Z,7.61
2018-01-27T11:22:19.165Z,7.79
2018-01-27T11:24:47.792Z,7.85
2018-01-27T11:27:16.661Z,7.84
2018-01-27T11:29:45.320Z,7.92
2018-01-27T11:32:14.042Z,7.90
2018-01-27T11:34:42.503Z,7.93
2018-01-27T11:37:11.210Z,7.91
2018-01-27T11:39:40.461Z,7.84
2018-01-27T11:42:08.899Z,7.79
2018-01-27T11:44:38.696Z,7.84
2018-01-27T11:47:07.133Z,7.89
2018-01-27T11:49:35.598Z,7.88
2018-01-27T11:52:04.289Z,7.78
2018-01-27T11:54:33.748Z,7.89
2018-01-27T11:57:02.183Z,7.99
2018-01-27T11:59:31.767Z,8.01
2018-01-27T12:02:00.277Z,7.96
2018-01-27T12:04:28.693Z,7.90
2018-01-27T12:06:57.177Z,7.81
2018-01-27T12:09:25.652Z,7.78
2018-01-27T12:11:54.103Z,7.82
2018-01-27T12:14:22.669Z,7.79
2018-01-27T12:16:51.202Z,7.80
2018-01-27T12:19:19.688Z,7.67
2018-01-27T12:21:48.540Z,7.63
2018-01-27T12:24:17.036Z,7.66
2018-01-27T12:26:45.638Z,7.79
2018-01-27T12:29:14.678Z,7.64
2018-01-27T12:31:43.175Z,7.79
2018-01-27T12:34:11.722Z,7.88
2018-01-27T12:36:40.425Z,7.98
2018-01-27T12:39:08.861Z,7.83
2018-01-27T12:41:37.436Z,7.94
2018-01-27T12:44:05.892Z,7.97
2018-01-27T12:46:34.353Z,7.94
2018-01-27T12:49:06.874Z,7.89
2018-01-27T12:51:37.242Z,7.95
2018-01-27T12:54:13.053Z,7.86
2018-01-27T12:56:41.631Z,7.82
2018-01-27T12:59:12.098Z,7.73
2018-01-27T13:01:47.173Z,7.65
2018-01-27T13:04:16.736Z,7.62
2018-01-27T13:06:45.763Z,7.64
2018-01-27T13:09:19.073Z,7.64
2018-01-27T13:11:47.689Z,7.56
2018-01-27T13:14:16.380Z,7.58
2018-01-27T13:16:46.551Z,7.45
2018-01-27T13:19:15.286Z,7.50
2018-01-27T13:21:43.875Z,7.38
2018-01-27T13:24:13.049Z,7.22
2018-01-27T13:26:41.502Z,7.17
2018-01-27T13:29:09.947Z,7.16
2018-01-27T13:31:38.826Z,7.20
2018-01-27T13:34:07.241Z,7.13
2018-01-27T13:36:36.466Z,7.17
2018-01-27T13:39:05.414Z,7.27
2018-01-27T13:41:33.897Z,7.13
2018-01-27T13:44:02.352Z,7.22
2018-01-27T13:46:31.434Z,7.24
2018-01-27T13:49:00.282Z,7.17
2018-01-27T13:51:28.763Z,7.16
2018-01-27T13:53:57.244Z,7.14
2018-01-27T13:56:25.801Z,7.05
2018-01-27T13:58:54.326Z,7.00
2018-01-27T14:01:22.940Z,7.03
2018-01-27T14:03:51.422Z,7.05
2018-01-27T14:06:20.646Z,7.04
2018-01-27T14:08:49.225Z,6.87
2018-01-27T14:11:17.753Z,6.98
2018-01-27T14:13:46.202Z,6.94
2018-01-27T14:16:15.354Z,7.00
2018-01-27T14:18:44.743Z,7.07
2018-01-27T14:21:13.288Z,6.93
2018-01-27T14:23:42.077Z,7.06
2018-01-27T14:26:10.493Z,7.05
2018-01-27T14:28:38.932Z,7.03
2018-01-27T14:31:07.616Z,6.93
2018-01-27T14:33:36.120Z,7.04
2018-01-27T14:36:04.579Z,7.12
2018-01-27T14:38:33.054Z,7.13
2018-01-27T14:41:02.028Z,7.17
2018-01-27T14:43:30.455Z,7.11
2018-01-27T14:45:59.726Z,7.14
2018-01-27T14:48:28.204Z,7.09
2018-01-27T14:50:56.653Z,6.97
2018-01-27T14:53:25.351Z,7.06
2018-01-27T14:55:53.799Z,7.03
2018-01-27T14:58:22.371Z,7.04
2018-01-27T15:00:50.945Z,7.06
2018-01-27T15:03:19.541Z,7.06
2018-01-27T15:05:48.024Z,7.05
2018-01-27T15:08:16.589Z,7.06
2018-01-27T15:10:45.198Z,7.07
2018-01-27T15:13:13.882Z,7.01
2018-01-27T15:15:42.586Z,7.07
2018-01-27T15:18:11.038Z,7.10
2018-01-27T15:20:39.454Z,7.10
2018-01-27T15:23:08.918Z,7.12
2018-01-27T15:25:37.497Z,7.06
2018-01-27T15:28:05.949Z,6.97
2018-01-27T15:30:34.570Z,7.02
2018-01-27T15:33:02.997Z,7.04
2018-01-27T15:35:31.414Z,6.96
2018-01-27T15:38:01.350Z,7.01
2018-01-27T15:40:29.907Z,7.01
2018-01-27T15:42:58.331Z,7.01
2018-01-27T15:45:26.865Z,7.02
2018-01-27T15:47:55.870Z,7.08
2018-01-27T15:50:24.377Z,7.11
2018-01-27T15:52:53.759Z,7.07
2018-01-27T15:55:22.469Z,7.00
2018-01-27T15:57:50.924Z,7.02
2018-01-27T16:00:20.481Z,7.03
2018-01-27T16:02:49.037Z,6.95
2018-01-27T16:05:17.621Z,6.94
2018-01-27T16:07:47.364Z,6.84
2018-01-27T16:10:16.054Z,6.76
2018-01-27T16:12:44.583Z,6.71
2018-01-27T16:15:13.716Z,6.67
2018-01-27T16:17:42.315Z,6.61
2018-01-27T16:20:11.597Z,6.73
2018-01-27T16:22:41.799Z,6.73
2018-01-27T16:25:10.977Z,6.77
2018-01-27T16:27:41.073Z,6.78
2018-01-27T16:30:12.531Z,6.78
2018-01-27T16:32:44.046Z,6.75
2018-01-27T16:35:14.360Z,6.74
2018-01-27T16:37:44.242Z,6.74
2018-01-27T16:40:12.812Z,6.65
2018-01-27T16:42:44.217Z,6.60
2018-01-27T16:45:12.910Z,6.59
2018-01-27T16:47:42.168Z,6.57
2018-01-27T16:50:11.389Z,6.56
2018-01-27T16:52:41.817Z,6.52
2018-01-27T16:55:11.956Z,6.56
2018-01-27T16:57:41.256Z,6.57
2018-01-27T17:00:11.324Z,6.64
2018-01-27T17:02:41.959Z,6.60
2018-01-27T17:05:14.219Z,6.56
2018-01-27T17:07:44.962Z,6.53
2018-01-27T17:10:14.302Z,6.48
2018-01-27T17:12:43.118Z,6.53
2018-01-27T17:15:11.593Z,6.48
2018-01-27T17:17:40.414Z,6.40
2018-01-27T17:20:09.689Z,6.39
2018-01-27T17:22:38.802Z,6.36
2018-01-27T17:25:08.898Z,6.36
2018-01-27T17:27:39.132Z,6.44
2018-01-27T17:30:09.413Z,6.43
2018-01-27T17:32:39.775Z,6.47
2018-01-27T17:35:09.715Z,6.45
2018-01-27T17:37:38.296Z,6.40
2018-01-27T17:40:06.712Z,6.47
2018-01-27T17:42:35.649Z,6.54
2018-01-27T17:45:05.410Z,6.49
2018-01-27T17:47:33.969Z,6.45
2018-01-27T17:50:03.469Z,6.45
2018-01-27T17:52:32.429Z,6.42
2018-01-27T17:55:03.174Z,6.39
2018-01-27T17:57:33.379Z,6.41
2018-01-27T18:00:03.638Z,6.44
2018-01-27T18:02:32.193Z,6.41
2018-01-27T18:05:00.802Z,6.39
2018-01-27T18:07:29.336Z,6.37
2018-01-27T18:09:57.940Z,6.32
2018-01-27T18:12:26.937Z,6.37
2018-01-27T18:14:55.394Z,6.31
2018-01-27T18:17:24.800Z,6.36
2018-01-27T18:19:55.659Z,6.35
2018-01-27T18:22:24.264Z,6.36
2018-01-27T18:24:54.682Z,6.36
2018-01-27T18:27:24.488Z,6.32
2018-01-27T18:29:53.803Z,6.29
2018-01-27T18:32:22.344Z,6.23
2018-01-27T18:34:51.198Z,6.18
2018-01-27T18:37:19.658Z,6.20
2018-01-27T18:39:48.597Z,6.18
2018-01-27T18:42:18.718Z,6.16
2018-01-27T18:44:47.247Z,6.16
2018-01-27T18:47:16.147Z,6.12
2018-01-27T18:49:45.553Z,6.14
2018-01-27T18:52:14.378Z,6.13
2018-01-27T18:54:44.942Z,6.14
2018-01-27T18:57:15.777Z,6.13
2018-01-27T18:59:44.472Z,6.17
2018-01-27T19:02:13.216Z,6.20
2018-01-27T19:04:42.350Z,6.18
2018-01-27T19:07:10.848Z,6.13
2018-01-27T19:09:39.663Z,6.19
2018-01-27T19:12:09.018Z,6.25
2018-01-27T19:14:37.501Z,6.21
2018-01-27T19:17:05.970Z,6.28
2018-01-27T19:19:34.426Z,6.28
2018-01-27T19:22:04.046Z,6.30
2018-01-27T19:24:32.554Z,6.33
2018-01-27T19:27:02.599Z,6.32
2018-01-27T19:29:31.070Z,6.29
2018-01-27T19:32:01.499Z,6.33
2018-01-27T19:34:30.227Z,6.34
2018-01-27T19:36:59.410Z,6.29
2018-01-27T19:39:27.907Z,6.33
2018-01-27T19:41:57.163Z,6.34
2018-01-27T19:44:25.783Z,6.42
2018-01-27T19:46:54.588Z,6.39
2018-01-27T19:49:23.664Z,6.42
2018-01-27T19:51:52.315Z,6.41
2018-01-27T19:54:20.938Z,6.47
2018-01-27T19:56:49.559Z,6.52
2018-01-27T19:59:18.138Z,6.60
2018-01-27T20:01:46.734Z,6.55
2018-01-27T20:04:15.373Z,6.59
2018-01-27T20:06:43.926Z,6.57
2018-01-27T20:09:12.546Z,6.60
2018-01-27T20:11:41.089Z,6.55
2018-01-27T20:14:09.520Z,6.51
2018-01-27T20:16:38.064Z,6.51
2018-01-27T20:19:06.956Z,6.46
2018-01-27T20:21:35.635Z,6.47
2018-01-27T20:24:05.708Z,6.38
2018-01-27T20:26:38.823Z,6.33
2018-01-27T20:29:12.405Z,6.35
2018-01-27T20:31:45.080Z,6.34
2018-01-27T20:34:13.986Z,6.31
2018-01-27T20:36:43.252Z,6.24
2018-01-27T20:39:13.852Z,6.28
2018-01-27T20:41:43.215Z,6.18
2018-01-27T20:44:12.960Z,6.16
2018-01-27T20:46:46.387Z,6.20
2018-01-27T20:49:16.933Z,6.19
2018-01-27T20:51:47.041Z,6.13
2018-01-27T20:54:17.302Z,6.14
2018-01-27T20:56:47.365Z,6.13
2018-01-27T20:59:18.878Z,6.15
2018-01-27T21:01:49.409Z,6.15
2018-01-27T21:04:19.040Z,6.11
2018-01-27T21:06:49.268Z,6.07
2018-01-27T21:09:18.991Z,6.04
2018-01-27T21:11:48.613Z,6.04
2018-01-27T21:14:17.667Z,5.98
2018-01-27T21:16:48.439Z,6.02
2018-01-27T21:19:21.993Z,5.94
2018-01-27T21:21:52.435Z,5.99
2018-01-27T21:24:21.988Z,6.03
2018-01-27T21:26:51.245Z,6.00
2018-01-27T21:29:22.114Z,5.98
2018-01-27T21:31:51.072Z,5.97
2018-01-27T21:34:21.970Z,5.96
2018-01-27T21:36:53.076Z,5.97
2018-01-27T21:39:21.833Z,5.91
2018-01-27T21:41:51.036Z,5.98
2018-01-27T21:44:23.080Z,5.98
2018-01-27T21:46:53.127Z,5.92
2018-01-27T21:49:34.381Z,5.80
2018-01-27T21:52:09.042Z,5.79
2018-01-27T21:54:38.105Z,5.76
2018-01-27T21:57:06.533Z,5.83
2018-01-27T21:59:35.006Z,5.88
2018-01-27T22:02:03.926Z,5.79
2018-01-27T22:04:32.347Z,5.78
2018-01-27T22:07:00.817Z,5.78
2018-01-27T22:09:29.822Z,5.82
2018-01-27T22:11:58.294Z,5.84
2018-01-27T22:14:26.889Z,5.83
2018-01-27T22:16:56.342Z,5.83
2018-01-27T22:19:25.272Z,5.82
2018-01-27T22:21:53.755Z,5.83
2018-01-27T22:24:22.243Z,5.85
2018-01-27T22:26:50.821Z,5.81
2018-01-27T22:29:19.309Z,5.85
2018-01-27T22:31:47.874Z,5.85
2018-01-27T22:34:16.563Z,5.86
2018-01-27T22:36:45.331Z,5.88
2018-01-27T22:39:14.200Z,5.91
2018-01-27T22:41:42.716Z,5.88
2018-01-27T22:44:11.152Z,5.89
2018-01-27T22:46:39.744Z,5.90
2018-01-27T22:49:08.188Z,5.93
2018-01-27T22:51:36.814Z,5.94
2018-01-27T22:54:06.169Z,5.93
2018-01-27T22:56:34.737Z,5.86
2018-01-27T22:59:03.190Z,5.91
2018-01-27T23:01:31.646Z,5.91
2018-01-27T23:04:00.130Z,5.94
2018-01-27T23:06:28.693Z,5.93
2018-01-27T23:08:57.522Z,5.94
2018-01-27T23:11:26.165Z,5.93
2018-01-27T23:13:54.660Z,5.93
2018-01-27T23:16:23.448Z,5.98
2018-01-27T23:18:52.084Z,5.97
2018-01-27T23:21:20.888Z,5.94
2018-01-27T23:23:49.678Z,5.99
2018-01-27T23:26:18.679Z,6.01
2018-01-27T23:28:47.744Z,6.02
2018-01-27T23:31:17.216Z,6.03
2018-01-27T23:33:46.195Z,6.03
2018-01-27T23:36:15.492Z,6.04
2018-01-27T23:38:44.352Z,6.05
2018-01-27T23:41:13.587Z,6.05
2018-01-27T23:43:42.503Z,6.09
2018-01-27T23:46:11.690Z,6.14
2018-01-27T23:48:40.188Z,6.07
2018-01-27T23:51:08.658Z,6.09
2018-01-27T23:53:37.169Z,6.11
2018-01-27T23:56:05.899Z,6.17
2018-01-27T23:58:34.341Z,6.15
